Time;durP1;ratioP1;P1;durP2;ratioP2;P2;SDS_P1;SDS_P2;PMS_P1;PMS_P2;Temp;Humidity;BMP_temperature;BMP_pressure;BME280_temperature;BME280_humidity;BME280_pressure;Samples;Min_cycle;Max_cycle;Signal;HPM_P1;HPM_P2
2022/07/09 00:02:09;;;;;;;;;;;18.10;99.90;;;;;;5071545;28;19911;-75
2022/07/09 00:04:34;;;;;;;;;;;18.10;99.90;;;;;;5072176;28;19954;-75
2022/07/09 00:07:00;;;;;;;;;;;18.00;99.90;;;;;;5071983;28;19963;-75
2022/07/09 00:09:26;;;;;;;;;;;17.90;99.90;;;;;;5071420;28;19912;-75
2022/07/09 00:11:52;;;;;;;;;;;17.90;99.90;;;;;;5071620;28;19912;-75
2022/07/09 00:14:18;;;;;;;;;;;17.90;99.90;;;;;;5072276;28;19987;-75
2022/07/09 00:16:44;;;;;;;;;;;17.90;99.90;;;;;;5075486;28;20116;-75
2022/07/09 00:19:09;;;;;;;;;;;17.80;99.90;;;;;;5057627;28;19911;-75
2022/07/09 00:21:35;;;;;;;;;;;17.70;99.90;;;;;;5075071;28;20274;-75
2022/07/09 00:24:00;;;;;;;;;;;17.70;99.90;;;;;;5075415;28;19997;-75
2022/07/09 00:26:26;;;;;;;;;;;17.70;99.90;;;;;;5074634;28;20347;-75
2022/07/09 00:28:51;;;;;;;;;;;17.80;99.90;;;;;;5074773;28;20010;-75
2022/07/09 00:31:17;;;;;;;;;;;17.70;99.90;;;;;;5074608;28;20333;-76
2022/07/09 00:33:42;;;;;;;;;;;17.80;99.90;;;;;;5075156;28;20267;-75
2022/07/09 00:36:08;;;;;;;;;;;17.80;99.90;;;;;;5074914;28;19945;-75
2022/07/09 00:38:34;;;;;;;;;;;17.90;99.90;;;;;;5074501;28;19900;-75
2022/07/09 00:40:59;;;;;;;;;;;17.90;99.90;;;;;;5075031;28;20003;-75
2022/07/09 00:43:25;;;;;;;;;;;17.90;99.90;;;;;;5074342;28;20011;-75
2022/07/09 00:45:50;;;;;;;;;;;17.90;99.90;;;;;;5074903;28;19904;-75
2022/07/09 00:48:16;;;;;;;;;;;17.90;99.90;;;;;;5074427;28;19950;-75
2022/07/09 00:50:42;;;;;;;;;;;18.00;99.90;;;;;;5074495;28;20251;-75
2022/07/09 00:53:27;;;;;;;;;;;18.00;99.90;;;;;;5056933;28;19904;-75
2022/07/09 00:55:53;;;;;;;;;;;18.00;99.90;;;;;;5074659;28;19916;-75
2022/07/09 00:58:19;;;;;;;;;;;18.10;99.90;;;;;;5074172;28;19911;-75
2022/07/09 01:00:45;;;;;;;;;;;18.10;99.90;;;;;;5074348;28;20415;-75
2022/07/09 01:03:11;;;;;;;;;;;18.10;99.90;;;;;;5074636;28;19908;-75
2022/07/09 01:05:36;;;;;;;;;;;18.10;99.90;;;;;;5073858;28;19911;-75
2022/07/09 01:08:06;;;;;;;;;;;18.20;99.90;;;;;;5074521;28;19914;-75
2022/07/09 01:10:32;;;;;;;;;;;18.20;99.90;;;;;;5073697;28;19904;-75
2022/07/09 01:12:58;;;;;;;;;;;18.10;99.90;;;;;;5074181;28;19904;-75
2022/07/09 01:15:24;;;;;;;;;;;18.10;99.90;;;;;;5073745;28;19919;-75
2022/07/09 01:17:52;;;;;;;;;;;18.10;99.90;;;;;;5074075;28;19911;-76
2022/07/09 01:20:23;;;;;;;;;;;18.10;99.90;;;;;;5073872;28;19911;-75
2022/07/09 01:22:49;;;;;;;;;;;18.00;99.90;;;;;;5074573;28;19905;-76
2022/07/09 01:25:16;;;;;;;;;;;18.00;99.90;;;;;;5073442;28;19927;-75
2022/07/09 01:27:42;;;;;;;;;;;18.00;99.90;;;;;;5073484;28;20003;-76
2022/07/09 01:30:07;;;;;;;;;;;18.00;99.90;;;;;;5074166;28;20346;-76
2022/07/09 01:32:33;;;;;;;;;;;18.00;99.90;;;;;;5073135;28;19911;-76
2022/07/09 01:34:59;;;;;;;;;;;17.90;99.90;;;;;;5073980;28;19931;-75
2022/07/09 01:37:24;;;;;;;;;;;17.90;99.90;;;;;;5072951;28;19955;-76
2022/07/09 01:39:50;;;;;;;;;;;17.90;99.90;;;;;;5073922;28;19951;-76
2022/07/09 01:42:19;;;;;;;;;;;17.80;99.90;;;;;;5073693;28;19904;-75
2022/07/09 01:44:45;;;;;;;;;;;17.90;99.90;;;;;;5055883;28;19919;-75
2022/07/09 01:47:11;;;;;;;;;;;17.90;99.90;;;;;;5073756;28;19978;-75
2022/07/09 01:49:36;;;;;;;;;;;17.90;99.90;;;;;;5072654;28;19908;-75
2022/07/09 01:52:03;;;;;;;;;;;18.00;99.90;;;;;;5073032;28;19908;-75
2022/07/09 01:54:29;;;;;;;;;;;17.90;99.90;;;;;;5072635;28;19904;-75
2022/07/09 01:56:54;;;;;;;;;;;17.90;99.90;;;;;;5073003;28;20004;-75
2022/07/09 01:59:20;;;;;;;;;;;18.00;99.90;;;;;;5072827;28;20257;-75
2022/07/09 02:01:45;;;;;;;;;;;17.90;99.90;;;;;;5073330;28;19951;-75
2022/07/09 02:04:11;;;;;;;;;;;17.90;99.90;;;;;;5073823;28;19904;-75
2022/07/09 02:06:37;;;;;;;;;;;17.90;99.90;;;;;;5054706;28;19904;-75
2022/07/09 02:09:03;;;;;;;;;;;17.80;99.90;;;;;;5073280;28;19904;-75
2022/07/09 02:11:28;;;;;;;;;;;17.80;99.90;;;;;;5072690;28;20324;-75
2022/07/09 02:13:54;;;;;;;;;;;17.80;99.90;;;;;;5073131;28;19904;-75
2022/07/09 02:16:20;;;;;;;;;;;17.80;99.90;;;;;;5072657;28;19921;-75
2022/07/09 02:18:45;;;;;;;;;;;17.80;99.90;;;;;;5072759;28;20016;-75
2022/07/09 02:21:11;;;;;;;;;;;17.80;99.90;;;;;;5072909;28;19955;-75
2022/07/09 02:23:37;;;;;;;;;;;17.80;99.90;;;;;;5072471;28;20263;-75
2022/07/09 02:26:02;;;;;;;;;;;17.80;99.90;;;;;;5073062;28;20003;-75
2022/07/09 02:28:28;;;;;;;;;;;17.70;99.90;;;;;;5072162;28;20020;-75
2022/07/09 02:30:54;;;;;;;;;;;17.70;99.90;;;;;;5072767;28;19904;-75
2022/07/09 02:33:20;;;;;;;;;;;17.70;99.90;;;;;;5072841;28;19905;-75
2022/07/09 02:35:46;;;;;;;;;;;17.70;99.90;;;;;;5072246;28;19957;-75
2022/07/09 02:38:11;;;;;;;;;;;17.70;99.90;;;;;;5072358;28;19908;-75
2022/07/09 02:40:37;;;;;;;;;;;17.70;99.90;;;;;;5072330;28;19926;-75
2022/07/09 02:43:03;;;;;;;;;;;17.60;99.90;;;;;;5072637;28;20011;-75
2022/07/09 02:45:28;;;;;;;;;;;17.70;99.90;;;;;;5072167;28;20351;-75
2022/07/09 02:47:54;;;;;;;;;;;17.60;99.90;;;;;;5072803;28;19905;-76
2022/07/09 02:50:20;;;;;;;;;;;17.60;99.90;;;;;;5073049;28;19912;-76
2022/07/09 02:52:45;;;;;;;;;;;17.60;99.90;;;;;;5072175;28;20344;-75
2022/07/09 02:55:11;;;;;;;;;;;17.60;99.90;;;;;;5072353;28;20363;-75
2022/07/09 02:57:36;;;;;;;;;;;17.60;99.90;;;;;;5072259;28;19905;-75
2022/07/09 03:00:03;;;;;;;;;;;17.60;99.90;;;;;;5072630;28;19915;-75
2022/07/09 03:02:28;;;;;;;;;;;17.60;99.90;;;;;;5071785;28;19904;-75
2022/07/09 03:04:54;;;;;;;;;;;17.50;99.90;;;;;;5072856;28;20254;-75
2022/07/09 03:07:19;;;;;;;;;;;17.50;99.90;;;;;;5072300;28;19995;-75
2022/07/09 03:09:45;;;;;;;;;;;17.60;99.90;;;;;;5071990;28;19916;-75
2022/07/09 03:12:10;;;;;;;;;;;17.50;99.90;;;;;;5072548;28;19904;-76
2022/07/09 03:14:36;;;;;;;;;;;17.50;99.90;;;;;;5071784;28;19912;-75
2022/07/09 03:17:02;;;;;;;;;;;17.50;99.90;;;;;;5072508;28;19917;-75
2022/07/09 03:19:27;;;;;;;;;;;17.50;99.90;;;;;;5071781;28;19935;-75
2022/07/09 03:21:53;;;;;;;;;;;17.60;99.90;;;;;;5072535;28;20305;-75
2022/07/09 03:24:18;;;;;;;;;;;17.50;99.90;;;;;;5072713;28;20319;-75
2022/07/09 03:26:44;;;;;;;;;;;17.60;99.90;;;;;;5071579;28;19900;-75
2022/07/09 03:29:10;;;;;;;;;;;17.60;99.90;;;;;;5071995;28;19991;-75
2022/07/09 03:31:35;;;;;;;;;;;17.60;99.90;;;;;;5071517;28;19904;-75
2022/07/09 03:34:01;;;;;;;;;;;17.60;99.90;;;;;;5072167;28;19911;-75
2022/07/09 03:36:26;;;;;;;;;;;17.60;99.90;;;;;;5071461;28;20256;-75
2022/07/09 03:38:52;;;;;;;;;;;17.60;99.90;;;;;;5072134;28;19908;-75
2022/07/09 03:41:17;;;;;;;;;;;17.70;99.90;;;;;;5072324;28;19904;-75
2022/07/09 03:43:43;;;;;;;;;;;17.60;99.90;;;;;;5071662;28;19916;-75
2022/07/09 03:46:09;;;;;;;;;;;17.60;99.90;;;;;;5072051;28;19905;-75
2022/07/09 03:48:34;;;;;;;;;;;17.70;99.90;;;;;;5071652;28;19904;-75
2022/07/09 03:51:00;;;;;;;;;;;17.70;99.90;;;;;;5075526;28;19904;-75
2022/07/09 03:53:25;;;;;;;;;;;17.70;99.90;;;;;;5075742;28;19904;-75
2022/07/09 03:55:51;;;;;;;;;;;17.70;99.90;;;;;;5075431;28;20278;-75
2022/07/09 03:58:17;;;;;;;;;;;17.70;99.90;;;;;;5075819;28;19927;-75
2022/07/09 04:00:42;;;;;;;;;;;17.70;99.90;;;;;;5075579;28;19955;-75
2022/07/09 04:03:08;;;;;;;;;;;17.60;99.90;;;;;;5075902;28;19904;-75
2022/07/09 04:05:33;;;;;;;;;;;17.50;99.90;;;;;;5074802;28;20366;-75
2022/07/09 04:07:59;;;;;;;;;;;17.60;99.90;;;;;;5075814;28;20007;-75
2022/07/09 04:10:24;;;;;;;;;;;17.50;99.90;;;;;;5075455;28;20358;-75
2022/07/09 04:12:50;;;;;;;;;;;17.50;99.90;;;;;;5075314;28;19943;-75
2022/07/09 04:15:15;;;;;;;;;;;17.50;99.90;;;;;;5075310;28;19999;-75
2022/07/09 04:17:41;;;;;;;;;;;17.50;99.90;;;;;;5075003;28;20017;-75
2022/07/09 04:20:07;;;;;;;;;;;17.50;99.90;;;;;;5075412;28;19991;-75
2022/07/09 04:22:33;;;;;;;;;;;17.50;99.90;;;;;;5074717;28;20282;-75
2022/07/09 04:24:59;;;;;;;;;;;17.50;99.90;;;;;;5075179;28;20052;-75
2022/07/09 04:27:24;;;;;;;;;;;17.40;99.90;;;;;;5075405;28;19909;-75
2022/07/09 04:29:50;;;;;;;;;;;17.50;99.90;;;;;;5074488;28;20276;-75
2022/07/09 04:32:16;;;;;;;;;;;17.40;99.90;;;;;;5075060;28;19914;-75
2022/07/09 04:34:41;;;;;;;;;;;17.40;99.90;;;;;;5074434;28;20347;-75
2022/07/09 04:37:07;;;;;;;;;;;17.40;99.90;;;;;;5074992;28;19951;-75
2022/07/09 04:39:32;;;;;;;;;;;17.40;99.90;;;;;;5074391;28;19912;-75
2022/07/09 04:41:58;;;;;;;;;;;17.40;99.90;;;;;;5074836;28;19905;-75
2022/07/09 04:44:24;;;;;;;;;;;17.30;99.90;;;;;;5074532;28;19960;-75
2022/07/09 04:46:49;;;;;;;;;;;17.30;99.90;;;;;;5074418;28;20063;-75
2022/07/09 04:49:15;;;;;;;;;;;17.30;99.90;;;;;;5074933;28;19905;-76
2022/07/09 04:51:40;;;;;;;;;;;17.40;99.90;;;;;;5074358;28;19949;-75
2022/07/09 04:54:06;;;;;;;;;;;17.40;99.90;;;;;;5074578;28;19912;-75
2022/07/09 04:56:32;;;;;;;;;;;17.40;99.90;;;;;;5074160;28;20292;-76
2022/07/09 04:59:00;;;;;;;;;;;17.40;99.90;;;;;;5074724;28;19904;-75
2022/07/09 05:01:26;;;;;;;;;;;17.40;99.90;;;;;;5073270;28;19904;-75
2022/07/09 05:03:52;;;;;;;;;;;17.40;99.90;;;;;;5073935;28;19946;-75
2022/07/09 05:06:18;;;;;;;;;;;17.40;99.90;;;;;;5074554;28;20264;-75
2022/07/09 05:08:44;;;;;;;;;;;17.40;99.90;;;;;;5073994;28;20013;-75
2022/07/09 05:11:12;;;;;;;;;;;17.40;99.90;;;;;;5074083;28;20000;-75
2022/07/09 05:13:39;;;;;;;;;;;17.40;99.90;;;;;;5073904;28;20452;-75
2022/07/09 05:16:05;;;;;;;;;;;17.40;99.90;;;;;;5074254;28;19970;-75
2022/07/09 05:18:31;;;;;;;;;;;17.40;99.90;;;;;;5073948;28;19997;-75
2022/07/09 05:20:57;;;;;;;;;;;17.30;99.90;;;;;;5073675;28;19991;-75
2022/07/09 05:23:22;;;;;;;;;;;17.30;99.90;;;;;;5074195;28;20374;-75
2022/07/09 05:25:48;;;;;;;;;;;17.30;99.90;;;;;;5073651;28;19904;-75
2022/07/09 05:28:13;;;;;;;;;;;17.30;99.90;;;;;;5073824;28;19995;-75
2022/07/09 05:30:39;;;;;;;;;;;17.40;99.90;;;;;;5073105;28;19909;-75
2022/07/09 05:33:05;;;;;;;;;;;17.30;99.90;;;;;;5074014;28;20334;-75
2022/07/09 05:35:31;;;;;;;;;;;17.30;99.90;;;;;;5073854;28;20011;-75
2022/07/09 05:37:56;;;;;;;;;;;17.30;99.90;;;;;;5073700;28;19943;-75
2022/07/09 05:40:22;;;;;;;;;;;17.30;99.90;;;;;;5074029;28;20372;-75
2022/07/09 05:42:47;;;;;;;;;;;17.30;99.90;;;;;;5073103;28;20011;-75
2022/07/09 05:45:13;;;;;;;;;;;17.30;99.90;;;;;;5074039;28;19958;-75
2022/07/09 05:47:39;;;;;;;;;;;17.40;99.90;;;;;;5073222;28;19999;-76
2022/07/09 05:50:04;;;;;;;;;;;17.30;99.90;;;;;;5073467;28;19958;-75
2022/07/09 05:52:30;;;;;;;;;;;17.30;99.90;;;;;;5073372;28;19948;-75
2022/07/09 05:54:56;;;;;;;;;;;17.40;99.90;;;;;;5073020;28;20347;-75
2022/07/09 05:57:21;;;;;;;;;;;17.40;99.90;;;;;;5073010;28;20366;-75
2022/07/09 05:59:47;;;;;;;;;;;17.40;99.90;;;;;;5073027;28;19904;-75
2022/07/09 06:02:12;;;;;;;;;;;17.50;99.90;;;;;;5073251;28;19958;-75
2022/07/09 06:04:38;;;;;;;;;;;17.50;99.90;;;;;;5073267;28;19908;-76
2022/07/09 06:07:04;;;;;;;;;;;17.50;99.90;;;;;;5073210;28;19947;-75
2022/07/09 06:09:29;;;;;;;;;;;17.60;99.90;;;;;;5073317;28;19911;-75
2022/07/09 06:11:55;;;;;;;;;;;17.70;99.90;;;;;;5072040;28;19926;-75
2022/07/09 06:14:20;;;;;;;;;;;17.70;99.90;;;;;;5073112;28;19904;-75
2022/07/09 06:16:47;;;;;;;;;;;17.70;99.90;;;;;;5072671;28;19912;-75
2022/07/09 06:19:13;;;;;;;;;;;17.70;99.90;;;;;;5055304;28;19975;-75
2022/07/09 06:21:38;;;;;;;;;;;17.70;99.90;;;;;;5054701;28;19905;-75
2022/07/09 06:24:04;;;;;;;;;;;17.60;99.90;;;;;;5073151;28;19905;-75
2022/07/09 06:26:31;;;;;;;;;;;17.70;99.90;;;;;;5072903;28;20003;-75
2022/07/09 06:28:56;;;;;;;;;;;17.70;99.90;;;;;;5072479;28;19900;-75
2022/07/09 06:31:22;;;;;;;;;;;17.70;99.90;;;;;;5073067;28;20016;-75
2022/07/09 06:33:48;;;;;;;;;;;17.70;99.90;;;;;;5072662;28;19912;-75
2022/07/09 06:36:14;;;;;;;;;;;17.80;99.90;;;;;;5072888;28;19916;-74
2022/07/09 06:41:23;;;;;;;;;;;17.70;99.90;;;;;;5072652;28;20289;-75
2022/07/09 06:43:49;;;;;;;;;;;17.80;99.90;;;;;;5071855;28;19917;-75
2022/07/09 06:46:15;;;;;;;;;;;17.80;99.90;;;;;;5072533;28;19916;-75
2022/07/09 06:48:40;;;;;;;;;;;17.70;99.90;;;;;;5072178;28;19904;-75
2022/07/09 06:51:06;;;;;;;;;;;17.80;99.90;;;;;;5072594;28;19905;-75
2022/07/09 06:53:32;;;;;;;;;;;17.80;99.90;;;;;;5072447;28;19916;-75
2022/07/09 06:55:57;;;;;;;;;;;17.80;99.90;;;;;;5072051;28;19912;-75
2022/07/09 06:58:23;;;;;;;;;;;17.80;99.90;;;;;;5072189;28;19905;-75
2022/07/09 07:00:48;;;;;;;;;;;17.80;99.90;;;;;;5054107;28;19995;-75
2022/07/09 07:03:15;;;;;;;;;;;17.80;99.90;;;;;;5072383;28;19904;-75
2022/07/09 07:05:40;;;;;;;;;;;17.80;99.90;;;;;;5071757;28;19905;-75
2022/07/09 07:08:06;;;;;;;;;;;17.80;99.90;;;;;;5072698;28;19904;-75
2022/07/09 07:10:32;;;;;;;;;;;17.90;99.90;;;;;;5072642;28;19916;-75
2022/07/09 07:12:57;;;;;;;;;;;17.90;99.90;;;;;;5072187;28;20717;-75
2022/07/09 07:15:23;;;;;;;;;;;18.00;99.90;;;;;;5072145;28;19904;-75
2022/07/09 07:17:48;;;;;;;;;;;18.00;99.90;;;;;;5071846;28;19905;-76
2022/07/09 07:20:14;;;;;;;;;;;18.00;99.90;;;;;;5072304;28;19905;-75
2022/07/09 07:22:40;;;;;;;;;;;18.10;99.90;;;;;;5071999;28;19904;-75
2022/07/09 07:25:06;;;;;;;;;;;18.10;99.90;;;;;;5074416;28;20277;-75
2022/07/09 07:27:31;;;;;;;;;;;18.20;99.90;;;;;;5076269;28;20002;-75
2022/07/09 07:29:57;;;;;;;;;;;18.30;99.90;;;;;;5075895;28;19911;-75
2022/07/09 07:32:22;;;;;;;;;;;18.40;99.90;;;;;;5076372;28;19908;-75
2022/07/09 07:34:48;;;;;;;;;;;18.40;99.90;;;;;;5075855;28;19911;-75
2022/07/09 07:37:13;;;;;;;;;;;18.40;99.90;;;;;;5076145;28;19932;-75
2022/07/09 07:39:39;;;;;;;;;;;18.40;99.90;;;;;;5076193;28;19911;-75
2022/07/09 07:42:07;;;;;;;;;;;18.40;99.90;;;;;;5075476;28;19908;-75
2022/07/09 07:44:32;;;;;;;;;;;18.40;99.90;;;;;;5076182;28;19934;-75
2022/07/09 07:46:58;;;;;;;;;;;18.50;99.90;;;;;;5075400;28;19995;-75
2022/07/09 07:49:24;;;;;;;;;;;18.60;99.90;;;;;;5075980;28;19905;-75
2022/07/09 07:51:49;;;;;;;;;;;18.60;99.90;;;;;;5075272;28;19908;-75
2022/07/09 07:54:15;;;;;;;;;;;18.70;99.90;;;;;;5075736;28;20266;-75
2022/07/09 07:56:41;;;;;;;;;;;18.70;99.90;;;;;;5075707;28;19912;-75
2022/07/09 07:59:07;;;;;;;;;;;18.70;99.90;;;;;;5075233;28;19905;-75
2022/07/09 08:01:32;;;;;;;;;;;18.60;99.90;;;;;;5076184;28;19912;-76
2022/07/09 08:03:58;;;;;;;;;;;18.70;99.90;;;;;;5075053;28;20271;-75
2022/07/09 08:06:24;;;;;;;;;;;18.70;99.90;;;;;;5075728;28;20339;-75
2022/07/09 08:08:50;;;;;;;;;;;18.60;99.90;;;;;;5075071;28;19994;-75
2022/07/09 08:11:15;;;;;;;;;;;18.70;99.90;;;;;;5075605;28;19950;-75
2022/07/09 08:13:41;;;;;;;;;;;18.70;99.90;;;;;;5075465;28;19904;-75
2022/07/09 08:16:06;;;;;;;;;;;18.70;99.90;;;;;;5074628;28;19913;-75
2022/07/09 08:18:32;;;;;;;;;;;18.80;99.90;;;;;;5075042;28;19955;-75
2022/07/09 08:20:58;;;;;;;;;;;18.80;99.90;;;;;;5075086;28;19905;-75
2022/07/09 08:23:24;;;;;;;;;;;18.80;99.90;;;;;;5075276;28;19974;-75
2022/07/09 08:25:49;;;;;;;;;;;18.80;99.90;;;;;;5074517;28;20251;-75
2022/07/09 08:28:15;;;;;;;;;;;18.90;99.90;;;;;;5074757;28;19911;-75
2022/07/09 08:30:41;;;;;;;;;;;19.00;99.90;;;;;;5075147;28;19951;-74
2022/07/09 08:33:07;;;;;;;;;;;19.10;99.90;;;;;;5074628;28;20465;-76
2022/07/09 08:35:33;;;;;;;;;;;19.10;99.90;;;;;;5074674;28;19908;-75
2022/07/09 08:37:58;;;;;;;;;;;19.20;99.90;;;;;;5074563;28;19954;-75
2022/07/09 08:40:25;;;;;;;;;;;19.30;99.90;;;;;;5074887;28;20009;-75
2022/07/09 08:42:52;;;;;;;;;;;19.50;99.90;;;;;;5074484;28;20042;-75
2022/07/09 08:45:18;;;;;;;;;;;19.60;99.90;;;;;;5074579;28;19911;-75
2022/07/09 08:47:44;;;;;;;;;;;19.80;99.90;;;;;;5074425;28;19904;-75
2022/07/09 08:50:10;;;;;;;;;;;19.90;99.90;;;;;;5074334;28;19904;-75
2022/07/09 08:52:37;;;;;;;;;;;20.10;99.90;;;;;;5074898;28;20425;-76
2022/07/09 08:55:03;;;;;;;;;;;20.10;99.90;;;;;;5074068;28;19946;-75
2022/07/09 08:57:29;;;;;;;;;;;20.20;99.90;;;;;;5074651;28;19919;-75
2022/07/09 08:59:55;;;;;;;;;;;20.30;99.90;;;;;;5073770;28;20404;-75
2022/07/09 09:02:21;;;;;;;;;;;20.30;99.90;;;;;;5075059;28;19908;-75
2022/07/09 09:04:46;;;;;;;;;;;20.30;99.90;;;;;;5073917;28;20270;-75
2022/07/09 09:07:15;;;;;;;;;;;20.30;99.90;;;;;;5074467;28;19922;-75
2022/07/09 09:09:42;;;;;;;;;;;20.30;99.90;;;;;;5074340;28;19908;-76
2022/07/09 09:12:08;;;;;;;;;;;20.40;99.90;;;;;;5073777;28;19908;-75
2022/07/09 09:14:33;;;;;;;;;;;20.40;99.90;;;;;;5074180;28;19905;-74
2022/07/09 09:17:11;;;;;;;;;;;20.50;99.90;;;;;;5073673;28;19912;-74
2022/07/09 09:19:40;;;;;;;;;;;20.60;99.90;;;;;;5074007;28;19904;-74
2022/07/09 09:22:07;;;;;;;;;;;20.70;99.90;;;;;;5073455;28;19908;-74
2022/07/09 09:24:34;;;;;;;;;;;20.70;99.90;;;;;;5074073;28;19908;-74
2022/07/09 09:26:59;;;;;;;;;;;20.90;99.90;;;;;;5073606;28;19915;-74
2022/07/09 09:29:26;;;;;;;;;;;20.90;99.90;;;;;;5074207;28;19904;-74
2022/07/09 09:31:52;;;;;;;;;;;20.90;99.90;;;;;;5073638;28;19904;-74
2022/07/09 09:34:18;;;;;;;;;;;20.80;99.90;;;;;;5073914;28;20255;-75
2022/07/09 09:36:56;;;;;;;;;;;20.70;99.90;;;;;;5074080;28;20252;-75
2022/07/09 09:39:25;;;;;;;;;;;20.70;99.90;;;;;;5074063;28;19905;-75
2022/07/09 09:41:54;;;;;;;;;;;20.60;99.90;;;;;;5073363;28;19905;-75
2022/07/09 09:44:31;;;;;;;;;;;20.60;99.90;;;;;;5073848;28;19916;-75
2022/07/09 09:46:57;;;;;;;;;;;20.60;99.90;;;;;;5072458;28;20378;-75
2022/07/09 09:49:24;;;;;;;;;;;20.60;99.90;;;;;;5073501;28;19904;-75
2022/07/09 09:51:58;;;;;;;;;;;20.60;99.90;;;;;;5073440;28;19904;-75
2022/07/09 09:54:24;;;;;;;;;;;20.50;99.90;;;;;;5073603;28;19962;-75
2022/07/09 09:56:49;;;;;;;;;;;20.50;99.90;;;;;;5073316;28;19948;-75
2022/07/09 09:59:15;;;;;;;;;;;20.50;99.90;;;;;;5055402;28;19905;-75
2022/07/09 10:01:41;;;;;;;;;;;20.60;99.90;;;;;;5073236;28;19904;-75
2022/07/09 10:04:08;;;;;;;;;;;20.60;99.90;;;;;;5071954;28;20351;-75
2022/07/09 10:06:34;;;;;;;;;;;20.60;99.90;;;;;;5072977;28;19911;-75
2022/07/09 10:09:01;;;;;;;;;;;20.70;99.90;;;;;;5072230;28;19995;-75
2022/07/09 10:11:37;;;;;;;;;;;20.80;99.90;;;;;;5072315;28;19911;-75
2022/07/09 10:14:02;;;;;;;;;;;20.70;99.90;;;;;;5072486;28;19908;-75
2022/07/09 10:16:32;;;;;;;;;;;20.70;99.90;;;;;;5073422;28;20415;-75
2022/07/09 10:18:57;;;;;;;;;;;20.70;99.90;;;;;;5072587;28;19947;-75
2022/07/09 10:21:33;;;;;;;;;;;20.80;99.90;;;;;;5072127;28;19974;-75
2022/07/09 10:23:59;;;;;;;;;;;20.90;99.90;;;;;;5072777;28;19931;-75
2022/07/09 10:26:34;;;;;;;;;;;20.90;99.90;;;;;;5072469;28;20343;-75
2022/07/09 10:29:00;;;;;;;;;;;20.90;99.90;;;;;;5072262;28;19911;-75
2022/07/09 10:31:25;;;;;;;;;;;20.90;99.90;;;;;;5072648;28;19904;-75
2022/07/09 10:34:00;;;;;;;;;;;20.90;99.90;;;;;;5054349;28;19905;-75
2022/07/09 10:36:25;;;;;;;;;;;21.00;99.90;;;;;;5072111;28;19958;-75
2022/07/09 10:38:57;;;;;;;;;;;21.00;99.90;;;;;;5053247;28;20208;-75
2022/07/09 10:41:23;;;;;;;;;;;21.20;99.90;;;;;;5072520;28;19908;-75
2022/07/09 10:43:50;;;;;;;;;;;21.50;99.90;;;;;;5072489;28;19970;-76
2022/07/09 10:46:16;;;;;;;;;;;21.80;99.90;;;;;;5071969;28;20418;-76
2022/07/09 10:48:45;;;;;;;;;;;21.90;99.90;;;;;;5072834;28;19952;-75
2022/07/09 10:51:20;;;;;;;;;;;22.00;99.90;;;;;;5072074;28;20027;-75
2022/07/09 10:53:46;;;;;;;;;;;22.10;99.90;;;;;;5072774;28;19957;-75
2022/07/09 10:56:15;;;;;;;;;;;22.10;99.90;;;;;;5054119;28;19920;-75
2022/07/09 10:58:45;;;;;;;;;;;22.20;99.90;;;;;;5073233;28;19958;-75
2022/07/09 11:01:17;;;;;;;;;;;22.20;99.90;;;;;;5072175;28;19905;-75
2022/07/09 11:03:48;;;;;;;;;;;22.20;99.90;;;;;;5072747;28;19905;-75
2022/07/09 11:06:13;;;;;;;;;;;22.20;99.90;;;;;;5072276;28;20489;-75
2022/07/09 11:08:39;;;;;;;;;;;22.20;99.90;;;;;;5072590;28;19904;-75
2022/07/09 11:11:04;;;;;;;;;;;22.00;99.90;;;;;;5072108;28;19904;-76
2022/07/09 11:13:30;;;;;;;;;;;21.90;99.90;;;;;;5072638;28;19939;-75
2022/07/09 11:16:01;;;;;;;;;;;22.00;99.90;;;;;;5071938;28;19912;-76
2022/07/09 11:18:28;;;;;;;;;;;22.10;99.90;;;;;;5072513;28;19905;-75
2022/07/09 11:20:54;;;;;;;;;;;22.10;99.90;;;;;;5072371;28;20330;-76
2022/07/09 11:23:20;;;;;;;;;;;22.10;99.90;;;;;;5072372;28;19904;-76
2022/07/09 11:25:46;;;;;;;;;;;22.10;99.90;;;;;;5072564;28;20378;-75
2022/07/09 11:28:38;;;;;;;;;;;22.10;99.90;;;;;;5071532;28;20365;-76
2022/07/09 11:31:04;;;;;;;;;;;22.00;99.90;;;;;;5067624;28;19904;-75
2022/07/09 11:36:15;;;;;;;;;;;22.20;99.90;;;;;;5071360;28;19915;-75
2022/07/09 11:38:50;;;;;;;;;;;22.30;99.90;;;;;;5072354;28;19905;-76
2022/07/09 11:41:16;;;;;;;;;;;22.40;99.90;;;;;;5053900;28;20498;-76
2022/07/09 11:43:48;;;;;;;;;;;22.40;99.90;;;;;;5072283;28;19916;-76
2022/07/09 11:46:18;;;;;;;;;;;22.40;99.90;;;;;;5071769;28;19920;-76
2022/07/09 11:48:50;;;;;;;;;;;22.60;99.90;;;;;;5072315;28;19908;-76
2022/07/09 11:51:26;;;;;;;;;;;22.90;99.90;;;;;;5071682;28;19911;-76
2022/07/09 11:53:51;;;;;;;;;;;22.80;99.90;;;;;;5072318;28;19905;-76
2022/07/09 11:56:17;;;;;;;;;;;22.70;99.90;;;;;;5071405;28;19920;-76
2022/07/09 11:58:48;;;;;;;;;;;22.60;99.90;;;;;;5072173;28;19915;-76
2022/07/09 12:01:14;;;;;;;;;;;22.50;99.90;;;;;;5071645;28;19904;-76
2022/07/09 12:03:46;;;;;;;;;;;22.30;99.90;;;;;;5072177;28;20365;-76
2022/07/09 12:06:11;;;;;;;;;;;22.10;99.90;;;;;;5069002;28;20359;-76
2022/07/09 12:08:37;;;;;;;;;;;22.00;99.90;;;;;;5071792;28;19955;-76
2022/07/09 12:11:03;;;;;;;;;;;21.90;99.90;;;;;;5073892;28;19908;-76
2022/07/09 12:13:29;;;;;;;;;;;21.90;99.90;;;;;;5075769;28;19904;-76
2022/07/09 12:15:55;;;;;;;;;;;22.00;99.90;;;;;;5075315;28;20416;-76
2022/07/09 12:18:20;;;;;;;;;;;21.90;99.90;;;;;;5075006;28;19905;-76
2022/07/09 12:20:46;;;;;;;;;;;21.90;99.90;;;;;;5075027;28;20015;-76
2022/07/09 12:23:12;;;;;;;;;;;22.00;99.90;;;;;;5074477;28;19909;-76
2022/07/09 12:25:37;;;;;;;;;;;22.00;99.90;;;;;;5075099;28;19948;-76
2022/07/09 12:28:03;;;;;;;;;;;22.00;99.90;;;;;;5074423;28;20266;-76
2022/07/09 12:30:31;;;;;;;;;;;22.00;99.90;;;;;;5074953;28;20275;-75
2022/07/09 12:32:59;;;;;;;;;;;22.00;99.90;;;;;;5075126;28;19957;-75
2022/07/09 12:35:25;;;;;;;;;;;22.00;99.90;;;;;;5075179;28;19912;-76
2022/07/09 12:37:51;;;;;;;;;;;22.10;99.90;;;;;;5074732;28;20259;-75
2022/07/09 12:40:17;;;;;;;;;;;22.10;99.90;;;;;;5074354;28;20306;-75
2022/07/09 12:42:42;;;;;;;;;;;22.10;99.90;;;;;;5056976;28;19916;-75
2022/07/09 12:45:08;;;;;;;;;;;22.20;99.90;;;;;;5074708;28;20302;-76
2022/07/09 12:47:35;;;;;;;;;;;22.30;99.90;;;;;;5074931;28;19927;-75
2022/07/09 12:50:03;;;;;;;;;;;22.50;99.90;;;;;;5074475;28;20274;-76
2022/07/09 12:52:32;;;;;;;;;;;22.60;99.90;;;;;;5074788;28;19989;-75
2022/07/09 12:54:58;;;;;;;;;;;22.60;99.90;;;;;;5074505;28;19911;-75
2022/07/09 12:57:24;;;;;;;;;;;22.50;99.90;;;;;;5074458;28;20351;-75
2022/07/09 12:59:49;;;;;;;;;;;22.50;99.90;;;;;;5075016;28;19954;-76
2022/07/09 13:02:15;;;;;;;;;;;22.50;99.90;;;;;;5074327;28;20393;-76
2022/07/09 13:04:40;;;;;;;;;;;22.60;99.90;;;;;;5074505;28;20279;-76
2022/07/09 13:07:06;;;;;;;;;;;22.60;99.90;;;;;;5073878;28;19904;-76
2022/07/09 13:09:33;;;;;;;;;;;22.60;99.90;;;;;;5074521;28;19908;-75
2022/07/09 13:11:59;;;;;;;;;;;22.60;99.90;;;;;;5074609;28;19908;-76
2022/07/09 13:14:25;;;;;;;;;;;22.50;99.90;;;;;;5074225;28;20037;-75
2022/07/09 13:16:50;;;;;;;;;;;22.40;99.90;;;;;;5074211;28;19908;-75
2022/07/09 13:19:16;;;;;;;;;;;22.50;99.90;;;;;;5073562;28;19908;-75
2022/07/09 13:21:41;;;;;;;;;;;22.40;99.90;;;;;;5073442;28;20347;-76
2022/07/09 13:24:07;;;;;;;;;;;22.40;99.90;;;;;;5073745;28;19974;-76
2022/07/09 13:26:32;;;;;;;;;;;22.50;99.90;;;;;;5074706;28;19915;-76
2022/07/09 13:29:17;;;;;;;;;;;22.60;99.90;;;;;;5074022;28;19959;-75
2022/07/09 13:31:43;;;;;;;;;;;22.80;99.90;;;;;;5074429;28;19912;-75
2022/07/09 13:34:08;;;;;;;;;;;22.90;99.90;;;;;;5073467;28;19904;-76
2022/07/09 13:36:34;;;;;;;;;;;23.00;99.90;;;;;;5074004;28;20006;-76
2022/07/09 13:38:59;;;;;;;;;;;23.10;99.90;;;;;;5073982;28;19912;-76
2022/07/09 13:41:25;;;;;;;;;;;23.20;99.90;;;;;;5073486;28;19904;-76
2022/07/09 13:43:50;;;;;;;;;;;23.30;99.90;;;;;;5073643;28;19961;-75
2022/07/09 13:46:16;;;;;;;;;;;23.30;99.90;;;;;;5055336;28;19908;-76
2022/07/09 13:48:42;;;;;;;;;;;23.40;99.90;;;;;;5073563;28;20373;-75
2022/07/09 13:51:07;;;;;;;;;;;23.50;99.90;;;;;;5073343;28;20374;-76
2022/07/09 13:53:33;;;;;;;;;;;23.40;99.90;;;;;;5073627;28;19983;-76
2022/07/09 13:55:59;;;;;;;;;;;23.40;99.90;;;;;;5055406;28;20422;-75
2022/07/09 13:58:24;;;;;;;;;;;23.40;99.90;;;;;;5073258;28;20007;-75
2022/07/09 14:00:50;;;;;;;;;;;23.50;99.90;;;;;;5074032;28;19915;-75
2022/07/09 14:03:16;;;;;;;;;;;23.60;99.90;;;;;;5072700;28;19908;-76
2022/07/09 14:05:42;;;;;;;;;;;23.60;99.90;;;;;;5073032;28;20335;-75
2022/07/09 14:08:07;;;;;;;;;;;23.60;99.90;;;;;;5055077;28;19995;-75
2022/07/09 14:10:34;;;;;;;;;;;23.60;99.90;;;;;;5072985;28;20371;-75
2022/07/09 14:12:59;;;;;;;;;;;23.70;99.90;;;;;;5073446;28;19934;-75
2022/07/09 14:15:25;;;;;;;;;;;23.80;99.90;;;;;;5072841;28;19961;-76
2022/07/09 14:17:51;;;;;;;;;;;23.70;99.90;;;;;;5073245;28;19908;-76